sensor_id;sensor_type;location;lat;lon;timestamp;pressure;altitude;pressure_sealevel;temperature;humidity
52105;BME280;38103;42.776;23.112;2022-10-18T00:01:01;95490.56;;;4.22;76.54
52105;BME280;38103;42.776;23.112;2022-10-18T00:03:26;95487.91;;;4.13;76.93
52105;BME280;38103;42.776;23.112;2022-10-18T00:05:52;95480.34;;;4.02;77.49
52105;BME280;38103;42.776;23.112;2022-10-18T00:08:18;95476.66;;;3.86;78.38
52105;BME280;38103;42.776;23.112;2022-10-18T00:10:44;95475.59;;;3.79;78.81
52105;BME280;38103;42.776;23.112;2022-10-18T00:13:09;95471.19;;;3.79;79.16
52105;BME280;38103;42.776;23.112;2022-10-18T00:15:35;95462.47;;;3.97;79.11
52105;BME280;38103;42.776;23.112;2022-10-18T00:18:00;95456.66;;;4.12;78.59
52105;BME280;38103;42.776;23.112;2022-10-18T00:20:26;95464.16;;;4.07;78.85
52105;BME280;38103;42.776;23.112;2022-10-18T00:22:52;95462.03;;;4.10;78.39
52105;BME280;38103;42.776;23.112;2022-10-18T00:25:17;95453.66;;;3.98;78.71
52105;BME280;38103;42.776;23.112;2022-10-18T00:27:42;95454.81;;;4.04;78.85
52105;BME280;38103;42.776;23.112;2022-10-18T00:30:08;95452.28;;;4.21;77.72
52105;BME280;38103;42.776;23.112;2022-10-18T00:32:37;95446.13;;;4.30;77.74
52105;BME280;38103;42.776;23.112;2022-10-18T00:35:04;95425.69;;;3.99;77.49
52105;BME280;38103;42.776;23.112;2022-10-18T00:37:30;95461.78;;;4.22;76.81
52105;BME280;38103;42.776;23.112;2022-10-18T00:39:56;95441.53;;;4.41;75.90
52105;BME280;38103;42.776;23.112;2022-10-18T00:42:25;95441.91;;;4.54;75.12
52105;BME280;38103;42.776;23.112;2022-10-18T00:47:18;95430.41;;;4.30;76.03
52105;BME280;38103;42.776;23.112;2022-10-18T00:49:50;95433.91;;;4.12;77.19
52105;BME280;38103;42.776;23.112;2022-10-18T00:52:25;95425.69;;;4.07;77.93
52105;BME280;38103;42.776;23.112;2022-10-18T00:54:51;95422.50;;;3.87;79.29
52105;BME280;38103;42.776;23.112;2022-10-18T00:57:17;95377.75;;;3.37;79.75
52105;BME280;38103;42.776;23.112;2022-10-18T00:59:43;95423.19;;;3.62;80.20
52105;BME280;38103;42.776;23.112;2022-10-18T01:02:10;95337.72;;;3.09;80.79
52105;BME280;38103;42.776;23.112;2022-10-18T01:04:39;95419.25;;;3.58;80.32
52105;BME280;38103;42.776;23.112;2022-10-18T01:07:54;95419.78;;;3.43;80.82
52105;BME280;38103;42.776;23.112;2022-10-18T01:13:00;95416.50;;;3.41;80.32
52105;BME280;38103;42.776;23.112;2022-10-18T01:15:35;95415.06;;;3.20;81.70
52105;BME280;38103;42.776;23.112;2022-10-18T01:18:33;95418.59;;;3.11;83.07
52105;BME280;38103;42.776;23.112;2022-10-18T01:32:15;95407.19;;;2.75;84.02
52105;BME280;38103;42.776;23.112;2022-10-18T01:34:43;95404.47;;;2.67;85.09
52105;BME280;38103;42.776;23.112;2022-10-18T01:37:13;95398.66;;;2.73;85.31
52105;BME280;38103;42.776;23.112;2022-10-18T01:39:43;95400.31;;;2.74;85.58
52105;BME280;38103;42.776;23.112;2022-10-18T01:42:11;95401.41;;;2.72;86.24
52105;BME280;38103;42.776;23.112;2022-10-18T01:44:38;95385.38;;;2.66;86.54
52105;BME280;38103;42.776;23.112;2022-10-18T01:47:06;95400.22;;;2.66;86.24
52105;BME280;38103;42.776;23.112;2022-10-18T01:49:33;95397.59;;;2.66;86.63
52105;BME280;38103;42.776;23.112;2022-10-18T01:51:59;95396.13;;;2.82;86.23
52105;BME280;38103;42.776;23.112;2022-10-18T01:54:31;95385.59;;;2.73;86.44
52105;BME280;38103;42.776;23.112;2022-10-18T01:57:04;95393.88;;;2.87;86.37
52105;BME280;38103;42.776;23.112;2022-10-18T01:59:45;95390.81;;;2.92;86.26
52105;BME280;38103;42.776;23.112;2022-10-18T02:07:45;95363.69;;;3.11;84.93
52105;BME280;38103;42.776;23.112;2022-10-18T02:10:33;95381.34;;;3.35;84.45
52105;BME280;38103;42.776;23.112;2022-10-18T02:13:00;95375.41;;;3.52;83.74
52105;BME280;38103;42.776;23.112;2022-10-18T02:15:32;95356.50;;;3.58;82.09
52105;BME280;38103;42.776;23.112;2022-10-18T02:18:00;95364.34;;;3.66;81.72
52105;BME280;38103;42.776;23.112;2022-10-18T02:20:29;95373.25;;;3.82;81.40
52105;BME280;38103;42.776;23.112;2022-10-18T02:22:58;95359.22;;;3.83;80.41
52105;BME280;38103;42.776;23.112;2022-10-18T02:25:26;95347.75;;;3.84;78.99
52105;BME280;38103;42.776;23.112;2022-10-18T02:27:54;95332.66;;;3.69;79.27
52105;BME280;38103;42.776;23.112;2022-10-18T02:30:29;95376.28;;;3.96;79.44
52105;BME280;38103;42.776;23.112;2022-10-18T02:33:01;95383.00;;;3.98;79.01
52105;BME280;38103;42.776;23.112;2022-10-18T02:35:34;95388.19;;;3.90;79.83
52105;BME280;38103;42.776;23.112;2022-10-18T02:38:03;95385.28;;;3.66;80.85
52105;BME280;38103;42.776;23.112;2022-10-18T02:40:29;95388.84;;;3.57;81.08
52105;BME280;38103;42.776;23.112;2022-10-18T02:42:56;95387.44;;;3.44;81.50
52105;BME280;38103;42.776;23.112;2022-10-18T02:45:22;95387.19;;;3.56;80.25
52105;BME280;38103;42.776;23.112;2022-10-18T02:47:49;95385.56;;;3.55;80.15
52105;BME280;38103;42.776;23.112;2022-10-18T02:50:14;95381.56;;;3.42;80.72
52105;BME280;38103;42.776;23.112;2022-10-18T02:52:40;95377.72;;;3.10;82.10
52105;BME280;38103;42.776;23.112;2022-10-18T02:55:06;95385.81;;;2.98;83.09
52105;BME280;38103;42.776;23.112;2022-10-18T02:57:32;95383.50;;;2.77;84.85
52105;BME280;38103;42.776;23.112;2022-10-18T02:59:57;95382.63;;;2.68;85.45
52105;BME280;38103;42.776;23.112;2022-10-18T03:02:23;95380.59;;;2.62;85.84
52105;BME280;38103;42.776;23.112;2022-10-18T03:04:48;95328.47;;;2.33;86.25
52105;BME280;38103;42.776;23.112;2022-10-18T03:07:14;95378.38;;;2.67;85.61
52105;BME280;38103;42.776;23.112;2022-10-18T03:09:39;95382.56;;;2.60;85.83
52105;BME280;38103;42.776;23.112;2022-10-18T03:12:05;95380.06;;;2.58;86.22
52105;BME280;38103;42.776;23.112;2022-10-18T03:14:30;95386.47;;;2.45;86.32
52105;BME280;38103;42.776;23.112;2022-10-18T03:16:56;95389.38;;;2.42;87.03
52105;BME280;38103;42.776;23.112;2022-10-18T03:19:21;95387.78;;;2.60;86.12
52105;BME280;38103;42.776;23.112;2022-10-18T03:21:47;95361.50;;;2.43;86.00
52105;BME280;38103;42.776;23.112;2022-10-18T03:24:12;95386.88;;;2.69;85.17
52105;BME280;38103;42.776;23.112;2022-10-18T03:26:37;95379.78;;;2.61;85.03
52105;BME280;38103;42.776;23.112;2022-10-18T03:29:03;95378.94;;;2.61;85.10
52105;BME280;38103;42.776;23.112;2022-10-18T03:31:28;95385.28;;;2.58;85.44
52105;BME280;38103;42.776;23.112;2022-10-18T03:33:53;95384.97;;;2.43;85.77
52105;BME280;38103;42.776;23.112;2022-10-18T03:36:19;95322.63;;;2.03;86.92
52105;BME280;38103;42.776;23.112;2022-10-18T03:38:44;95394.19;;;2.47;86.51
52105;BME280;38103;42.776;23.112;2022-10-18T03:41:10;95385.97;;;2.42;87.43
52105;BME280;38103;42.776;23.112;2022-10-18T03:43:35;95390.13;;;2.34;88.03
52105;BME280;38103;42.776;23.112;2022-10-18T03:46:00;95363.41;;;2.22;87.30
52105;BME280;38103;42.776;23.112;2022-10-18T03:48:26;95351.13;;;2.33;87.29
52105;BME280;38103;42.776;23.112;2022-10-18T03:50:51;95393.06;;;2.50;87.51
52105;BME280;38103;42.776;23.112;2022-10-18T03:53:17;95400.94;;;2.40;87.28
52105;BME280;38103;42.776;23.112;2022-10-18T03:55:42;95391.75;;;2.36;88.06
52105;BME280;38103;42.776;23.112;2022-10-18T03:58:08;95393.09;;;2.21;89.27
52105;BME280;38103;42.776;23.112;2022-10-18T04:00:33;95366.16;;;2.21;88.45
52105;BME280;38103;42.776;23.112;2022-10-18T04:02:59;95381.28;;;2.17;88.28
52105;BME280;38103;42.776;23.112;2022-10-18T04:05:25;95394.06;;;2.20;89.08
52105;BME280;38103;42.776;23.112;2022-10-18T04:07:52;95372.47;;;2.00;90.43
52105;BME280;38103;42.776;23.112;2022-10-18T04:10:19;95387.63;;;2.15;90.92
52105;BME280;38103;42.776;23.112;2022-10-18T04:12:44;95378.78;;;1.97;91.79
52105;BME280;38103;42.776;23.112;2022-10-18T04:15:09;95392.28;;;2.21;91.78
52105;BME280;38103;42.776;23.112;2022-10-18T04:17:35;95386.66;;;2.16;91.67
52105;BME280;38103;42.776;23.112;2022-10-18T04:20:00;95389.66;;;2.21;90.89
52105;BME280;38103;42.776;23.112;2022-10-18T04:22:26;95363.91;;;2.08;90.13
52105;BME280;38103;42.776;23.112;2022-10-18T04:24:51;95386.59;;;2.26;90.11
52105;BME280;38103;42.776;23.112;2022-10-18T04:27:21;95376.38;;;2.32;89.89
52105;BME280;38103;42.776;23.112;2022-10-18T04:29:46;95371.56;;;2.38;88.82
52105;BME280;38103;42.776;23.112;2022-10-18T04:32:12;95386.59;;;2.26;89.40
52105;BME280;38103;42.776;23.112;2022-10-18T04:34:37;95385.41;;;2.20;90.19
52105;BME280;38103;42.776;23.112;2022-10-18T04:37:02;95377.84;;;2.17;91.39
52105;BME280;38103;42.776;23.112;2022-10-18T04:39:28;95378.94;;;2.24;90.46
52105;BME280;38103;42.776;23.112;2022-10-18T04:41:53;95378.97;;;2.14;91.02
52105;BME280;38103;42.776;23.112;2022-10-18T04:44:18;95363.09;;;2.07;91.78
52105;BME280;38103;42.776;23.112;2022-10-18T04:46:44;95367.66;;;2.23;91.04
52105;BME280;38103;42.776;23.112;2022-10-18T04:49:09;95375.59;;;2.32;90.24
52105;BME280;38103;42.776;23.112;2022-10-18T04:51:34;95371.09;;;2.42;89.73
52105;BME280;38103;42.776;23.112;2022-10-18T04:54:00;95367.16;;;2.56;88.14
52105;BME280;38103;42.776;23.112;2022-10-18T04:56:25;95363.59;;;2.58;87.94
52105;BME280;38103;42.776;23.112;2022-10-18T04:58:51;95377.75;;;2.73;87.36
52105;BME280;38103;42.776;23.112;2022-10-18T05:01:16;95362.25;;;2.90;86.88
52105;BME280;38103;42.776;23.112;2022-10-18T05:03:43;95363.34;;;3.06;86.37
52105;BME280;38103;42.776;23.112;2022-10-18T05:06:08;95357.25;;;3.23;86.47
52105;BME280;38103;42.776;23.112;2022-10-18T05:08:35;95369.16;;;3.44;85.12
52105;BME280;38103;42.776;23.112;2022-10-18T05:11:01;95361.44;;;3.69;84.15
52105;BME280;38103;42.776;23.112;2022-10-18T05:13:26;95360.75;;;4.02;82.79
52105;BME280;38103;42.776;23.112;2022-10-18T05:15:51;95362.66;;;4.27;81.77
52105;BME280;38103;42.776;23.112;2022-10-18T05:18:17;95363.50;;;4.44;80.96
52105;BME280;38103;42.776;23.112;2022-10-18T05:20:42;95368.16;;;4.84;79.30
52105;BME280;38103;42.776;23.112;2022-10-18T05:23:08;95367.31;;;5.17;77.44
52105;BME280;38103;42.776;23.112;2022-10-18T05:25:43;95365.31;;;5.53;75.69
52105;BME280;38103;42.776;23.112;2022-10-18T05:28:09;95342.97;;;5.65;73.97
52105;BME280;38103;42.776;23.112;2022-10-18T05:30:38;95362.19;;;6.14;72.89
52105;BME280;38103;42.776;23.112;2022-10-18T05:33:04;95362.41;;;6.36;70.99
52105;BME280;38103;42.776;23.112;2022-10-18T05:35:30;95364.84;;;6.70;69.94
52105;BME280;38103;42.776;23.112;2022-10-18T05:37:55;95373.53;;;6.94;68.87
52105;BME280;38103;42.776;23.112;2022-10-18T05:40:21;95364.09;;;7.23;67.40
52105;BME280;38103;42.776;23.112;2022-10-18T05:42:46;95369.50;;;7.60;65.93
52105;BME280;38103;42.776;23.112;2022-10-18T05:45:11;95378.88;;;7.93;64.81
52105;BME280;38103;42.776;23.112;2022-10-18T05:47:37;95360.16;;;8.19;63.08
52105;BME280;38103;42.776;23.112;2022-10-18T05:50:03;95348.66;;;8.42;62.38
52105;BME280;38103;42.776;23.112;2022-10-18T05:52:28;95364.59;;;8.92;61.00
52105;BME280;38103;42.776;23.112;2022-10-18T05:54:53;95347.81;;;9.22;60.06
52105;BME280;38103;42.776;23.112;2022-10-18T05:57:19;95363.56;;;9.66;58.23
52105;BME280;38103;42.776;23.112;2022-10-18T05:59:44;95331.88;;;9.66;56.92
52105;BME280;38103;42.776;23.112;2022-10-18T06:02:11;95363.56;;;10.02;56.22
52105;BME280;38103;42.776;23.112;2022-10-18T06:04:36;95365.47;;;10.22;55.61
52105;BME280;38103;42.776;23.112;2022-10-18T06:07:02;95370.44;;;10.38;55.46
52105;BME280;38103;42.776;23.112;2022-10-18T06:09:28;95368.50;;;10.68;55.07
52105;BME280;38103;42.776;23.112;2022-10-18T06:11:55;95371.81;;;10.97;53.28
52105;BME280;38103;42.776;23.112;2022-10-18T06:14:21;95362.88;;;11.12;52.82
52105;BME280;38103;42.776;23.112;2022-10-18T06:16:47;95370.63;;;11.34;52.15
52105;BME280;38103;42.776;23.112;2022-10-18T06:19:12;95358.41;;;11.46;52.17
52105;BME280;38103;42.776;23.112;2022-10-18T06:21:38;95365.31;;;11.61;51.72
52105;BME280;38103;42.776;23.112;2022-10-18T06:24:03;95364.03;;;11.84;51.17
52105;BME280;38103;42.776;23.112;2022-10-18T06:26:29;95366.88;;;11.89;50.65
52105;BME280;38103;42.776;23.112;2022-10-18T06:28:54;95368.16;;;11.80;51.31
52105;BME280;38103;42.776;23.112;2022-10-18T06:31:19;95372.22;;;11.76;51.13
52105;BME280;38103;42.776;23.112;2022-10-18T06:33:45;95303.41;;;10.67;53.35
52105;BME280;38103;42.776;23.112;2022-10-18T06:36:19;95383.16;;;10.77;55.00
52105;BME280;38103;42.776;23.112;2022-10-18T06:38:46;95378.16;;;10.47;55.49
52105;BME280;38103;42.776;23.112;2022-10-18T06:41:12;95378.13;;;10.33;55.78
52105;BME280;38103;42.776;23.112;2022-10-18T06:43:38;95381.78;;;10.32;56.06
52105;BME280;38103;42.776;23.112;2022-10-18T06:46:04;95388.72;;;10.40;56.17
52105;BME280;38103;42.776;23.112;2022-10-18T06:48:35;95377.16;;;9.99;57.10
52105;BME280;38103;42.776;23.112;2022-10-18T06:51:03;95383.06;;;10.01;57.94
52105;BME280;38103;42.776;23.112;2022-10-18T06:53:30;95382.09;;;10.58;55.86
52105;BME280;38103;42.776;23.112;2022-10-18T06:56:05;95388.09;;;10.94;55.16
52105;BME280;38103;42.776;23.112;2022-10-18T06:58:31;95394.03;;;11.10;55.29
52105;BME280;38103;42.776;23.112;2022-10-18T07:00:58;95379.97;;;11.29;53.90
52105;BME280;38103;42.776;23.112;2022-10-18T07:03:23;95381.97;;;10.93;55.50
52105;BME280;38103;42.776;23.112;2022-10-18T07:05:50;95377.56;;;11.28;55.29
52105;BME280;38103;42.776;23.112;2022-10-18T07:08:16;95368.69;;;12.02;53.00
52105;BME280;38103;42.776;23.112;2022-10-18T07:10:49;95375.84;;;11.88;51.22
52105;BME280;38103;42.776;23.112;2022-10-18T07:13:15;95366.94;;;11.55;52.81
52105;BME280;38103;42.776;23.112;2022-10-18T07:15:41;95372.13;;;12.10;52.60
52105;BME280;38103;42.776;23.112;2022-10-18T07:18:06;95365.69;;;11.71;51.66
52105;BME280;38103;42.776;23.112;2022-10-18T07:20:32;95370.84;;;11.39;53.12
52105;BME280;38103;42.776;23.112;2022-10-18T07:22:57;95369.22;;;11.31;54.78
52105;BME280;38103;42.776;23.112;2022-10-18T07:25:23;95364.91;;;11.37;54.34
52105;BME280;38103;42.776;23.112;2022-10-18T07:27:48;95367.75;;;11.15;53.67
52105;BME280;38103;42.776;23.112;2022-10-18T07:30:13;95369.81;;;11.13;54.59
52105;BME280;38103;42.776;23.112;2022-10-18T07:32:39;95370.16;;;10.82;53.34
52105;BME280;38103;42.776;23.112;2022-10-18T07:35:04;95361.84;;;10.99;53.48
52105;BME280;38103;42.776;23.112;2022-10-18T07:37:30;95365.72;;;11.37;53.89
52105;BME280;38103;42.776;23.112;2022-10-18T07:39:56;95345.97;;;11.67;51.95
52105;BME280;38103;42.776;23.112;2022-10-18T07:42:21;95350.25;;;11.41;52.96
52105;BME280;38103;42.776;23.112;2022-10-18T07:44:46;95352.06;;;11.13;52.77
52105;BME280;38103;42.776;23.112;2022-10-18T07:47:12;95347.75;;;11.73;53.13
52105;BME280;38103;42.776;23.112;2022-10-18T07:49:37;95344.91;;;11.75;53.06
52105;BME280;38103;42.776;23.112;2022-10-18T07:52:03;95343.72;;;11.64;52.87
52105;BME280;38103;42.776;23.112;2022-10-18T07:54:28;95347.34;;;11.90;51.55
52105;BME280;38103;42.776;23.112;2022-10-18T07:56:54;95341.66;;;11.80;52.73
52105;BME280;38103;42.776;23.112;2022-10-18T07:59:19;95344.81;;;12.09;53.04
52105;BME280;38103;42.776;23.112;2022-10-18T08:01:45;95345.97;;;11.67;52.46
52105;BME280;38103;42.776;23.112;2022-10-18T08:04:10;95298.75;;;11.23;54.49
52105;BME280;38103;42.776;23.112;2022-10-18T08:06:36;95331.88;;;11.73;53.47
52105;BME280;38103;42.776;23.112;2022-10-18T08:09:01;95334.19;;;12.09;53.24
52105;BME280;38103;42.776;23.112;2022-10-18T08:11:27;95332.00;;;11.99;52.64
52105;BME280;38103;42.776;23.112;2022-10-18T08:13:53;95325.75;;;11.80;54.08
52105;BME280;38103;42.776;23.112;2022-10-18T08:16:23;95327.56;;;12.46;53.36
52105;BME280;38103;42.776;23.112;2022-10-18T08:18:49;95323.19;;;12.65;50.10
52105;BME280;38103;42.776;23.112;2022-10-18T08:21:16;95319.53;;;12.92;51.19
52105;BME280;38103;42.776;23.112;2022-10-18T08:23:42;95314.03;;;13.19;50.24
52105;BME280;38103;42.776;23.112;2022-10-18T08:26:13;95308.16;;;13.36;50.28
52105;BME280;38103;42.776;23.112;2022-10-18T08:28:40;95248.03;;;12.97;49.25
52105;BME280;38103;42.776;23.112;2022-10-18T08:31:08;95299.03;;;13.50;49.96
52105;BME280;38103;42.776;23.112;2022-10-18T08:33:34;95295.09;;;13.79;49.44
52105;BME280;38103;42.776;23.112;2022-10-18T08:36:02;95292.16;;;13.68;47.70
52105;BME280;38103;42.776;23.112;2022-10-18T08:38:30;95287.72;;;13.81;47.64
52105;BME280;38103;42.776;23.112;2022-10-18T08:41:05;95285.78;;;13.69;48.14
52105;BME280;38103;42.776;23.112;2022-10-18T08:44:03;95285.94;;;13.93;48.50
52105;BME280;38103;42.776;23.112;2022-10-18T08:46:31;95287.88;;;14.36;47.06
52105;BME280;38103;42.776;23.112;2022-10-18T08:48:58;95279.28;;;14.03;46.68
52105;BME280;38103;42.776;23.112;2022-10-18T08:51:45;95239.59;;;13.70;47.81
52105;BME280;38103;42.776;23.112;2022-10-18T08:54:13;95279.72;;;14.18;47.14
52105;BME280;38103;42.776;23.112;2022-10-18T08:56:45;95277.44;;;14.53;46.44
52105;BME280;38103;42.776;23.112;2022-10-18T08:59:11;95278.69;;;14.19;47.00
52105;BME280;38103;42.776;23.112;2022-10-18T09:04:38;95267.13;;;14.26;47.41
52105;BME280;38103;42.776;23.112;2022-10-18T09:09:46;95254.06;;;14.24;46.34
52105;BME280;38103;42.776;23.112;2022-10-18T09:25:46;95261.66;;;13.71;47.05
52105;BME280;38103;42.776;23.112;2022-10-18T09:30:46;95249.03;;;13.66;47.28
52105;BME280;38103;42.776;23.112;2022-10-18T09:33:39;95213.47;;;13.67;46.07
52105;BME280;38103;42.776;23.112;2022-10-18T09:36:08;95248.09;;;14.10;47.43
52105;BME280;38103;42.776;23.112;2022-10-18T09:38:56;95250.00;;;14.22;47.30
52105;BME280;38103;42.776;23.112;2022-10-18T09:44:38;95245.94;;;13.88;47.03
52105;BME280;38103;42.776;23.112;2022-10-18T09:47:13;95243.56;;;13.80;46.73
52105;BME280;38103;42.776;23.112;2022-10-18T09:49:46;95238.53;;;13.52;45.20
52105;BME280;38103;42.776;23.112;2022-10-18T09:52:18;95237.97;;;13.69;45.11
52105;BME280;38103;42.776;23.112;2022-10-18T09:55:08;95233.50;;;13.82;44.11
52105;BME280;38103;42.776;23.112;2022-10-18T09:57:45;95234.09;;;13.84;45.17
52105;BME280;38103;42.776;23.112;2022-10-18T10:00:16;95232.34;;;13.96;44.72
52105;BME280;38103;42.776;23.112;2022-10-18T10:02:42;95224.22;;;14.22;44.51
52105;BME280;38103;42.776;23.112;2022-10-18T10:05:12;95210.44;;;14.13;43.37
52105;BME280;38103;42.776;23.112;2022-10-18T10:07:45;95214.72;;;14.14;42.50
52105;BME280;38103;42.776;23.112;2022-10-18T10:10:28;95205.28;;;14.00;43.40
52105;BME280;38103;42.776;23.112;2022-10-18T10:15:29;95177.28;;;13.97;42.43
52105;BME280;38103;42.776;23.112;2022-10-18T10:18:20;95191.81;;;14.13;41.31
52105;BME280;38103;42.776;23.112;2022-10-18T10:20:51;95188.31;;;14.44;41.88
52105;BME280;38103;42.776;23.112;2022-10-18T10:23:21;95181.28;;;14.61;41.51
52105;BME280;38103;42.776;23.112;2022-10-18T10:25:54;95175.63;;;14.70;38.46
52105;BME280;38103;42.776;23.112;2022-10-18T10:28:24;95169.59;;;14.62;40.10
52105;BME280;38103;42.776;23.112;2022-10-18T10:30:51;95172.63;;;14.78;40.26
52105;BME280;38103;42.776;23.112;2022-10-18T10:33:37;95158.88;;;14.93;39.61
52105;BME280;38103;42.776;23.112;2022-10-18T10:36:16;95159.47;;;15.07;39.62
52105;BME280;38103;42.776;23.112;2022-10-18T10:38:42;95156.88;;;15.13;39.07
52105;BME280;38103;42.776;23.112;2022-10-18T10:41:22;95125.63;;;15.20;38.33
52105;BME280;38103;42.776;23.112;2022-10-18T10:43:48;95098.84;;;15.27;38.75
52105;BME280;38103;42.776;23.112;2022-10-18T10:46:15;95077.19;;;15.23;37.95
52105;BME280;38103;42.776;23.112;2022-10-18T10:48:51;95131.16;;;15.72;37.09
52105;BME280;38103;42.776;23.112;2022-10-18T10:51:35;95113.06;;;15.74;37.34
52105;BME280;38103;42.776;23.112;2022-10-18T10:56:53;95106.09;;;15.73;37.98
52105;BME280;38103;42.776;23.112;2022-10-18T10:59:21;95103.28;;;15.80;36.46
52105;BME280;38103;42.776;23.112;2022-10-18T11:01:48;95098.94;;;15.73;36.07
52105;BME280;38103;42.776;23.112;2022-10-18T11:04:30;95098.38;;;15.71;36.37
52105;BME280;38103;42.776;23.112;2022-10-18T11:12:21;95087.59;;;15.66;35.06
52105;BME280;38103;42.776;23.112;2022-10-18T11:14:56;95086.31;;;15.69;36.48
52105;BME280;38103;42.776;23.112;2022-10-18T11:22:36;95064.75;;;15.88;36.42
52105;BME280;38103;42.776;23.112;2022-10-18T11:25:03;95073.84;;;16.04;35.84
52105;BME280;38103;42.776;23.112;2022-10-18T11:27:40;95057.53;;;16.35;35.62
52105;BME280;38103;42.776;23.112;2022-10-18T11:30:34;95058.66;;;16.56;36.47
52105;BME280;38103;42.776;23.112;2022-10-18T11:33:21;95048.47;;;16.53;35.96
52105;BME280;38103;42.776;23.112;2022-10-18T11:41:29;95042.03;;;16.71;36.05
52105;BME280;38103;42.776;23.112;2022-10-18T11:44:03;95045.03;;;16.75;34.86
52105;BME280;38103;42.776;23.112;2022-10-18T11:46:43;95031.69;;;16.75;33.76
52105;BME280;38103;42.776;23.112;2022-10-18T12:00:33;95007.50;;;17.09;31.86
52105;BME280;38103;42.776;23.112;2022-10-18T12:03:17;94995.34;;;17.19;30.90
52105;BME280;38103;42.776;23.112;2022-10-18T12:05:47;94960.44;;;17.03;30.97
52105;BME280;38103;42.776;23.112;2022-10-18T12:08:19;94982.69;;;17.31;29.92
52105;BME280;38103;42.776;23.112;2022-10-18T12:10:51;94983.28;;;17.39;30.64
52105;BME280;38103;42.776;23.112;2022-10-18T12:13:43;94975.16;;;17.56;30.82
52105;BME280;38103;42.776;23.112;2022-10-18T12:16:10;94962.22;;;17.75;30.60
52105;BME280;38103;42.776;23.112;2022-10-18T12:18:46;94968.19;;;17.88;30.20
52105;BME280;38103;42.776;23.112;2022-10-18T12:21:12;94956.44;;;17.94;30.53
52105;BME280;38103;42.776;23.112;2022-10-18T12:23:58;94958.59;;;17.92;32.18
52105;BME280;38103;42.776;23.112;2022-10-18T12:26:26;94898.88;;;17.48;30.25
52105;BME280;38103;42.776;23.112;2022-10-18T12:29:11;94953.81;;;18.00;29.63
52105;BME280;38103;42.776;23.112;2022-10-18T12:39:46;94943.69;;;18.07;28.76
52105;BME280;38103;42.776;23.112;2022-10-18T12:42:18;94941.06;;;18.12;29.22
52105;BME280;38103;42.776;23.112;2022-10-18T12:44:45;94935.63;;;18.02;28.25
52105;BME280;38103;42.776;23.112;2022-10-18T12:47:21;94935.63;;;18.02;28.34
52105;BME280;38103;42.776;23.112;2022-10-18T12:49:55;94927.28;;;17.93;27.56
52105;BME280;38103;42.776;23.112;2022-10-18T12:52:23;94925.09;;;17.84;27.78
52105;BME280;38103;42.776;23.112;2022-10-18T12:55:12;94927.34;;;17.98;28.76
52105;BME280;38103;42.776;23.112;2022-10-18T13:30:32;94883.78;;;18.08;24.90
52105;BME280;38103;42.776;23.112;2022-10-18T13:33:29;94883.75;;;18.03;24.66
52105;BME280;38103;42.776;23.112;2022-10-18T13:46:16;94861.78;;;17.95;23.22
52105;BME280;38103;42.776;23.112;2022-10-18T13:51:34;94864.41;;;17.90;23.65
52105;BME280;38103;42.776;23.112;2022-10-18T14:00:18;94851.06;;;17.95;23.57
52105;BME280;38103;42.776;23.112;2022-10-18T14:05:48;94843.03;;;17.95;23.41
52105;BME280;38103;42.776;23.112;2022-10-18T14:11:15;94852.34;;;17.82;23.58
52105;BME280;38103;42.776;23.112;2022-10-18T14:18:50;94842.50;;;17.93;22.24
52105;BME280;38103;42.776;23.112;2022-10-18T14:21:23;94843.53;;;17.87;22.08
52105;BME280;38103;42.776;23.112;2022-10-18T14:23:53;94841.31;;;17.79;23.25
52105;BME280;38103;42.776;23.112;2022-10-18T14:26:19;94839.19;;;17.81;23.18
52105;BME280;38103;42.776;23.112;2022-10-18T14:29:03;94838.03;;;17.66;23.21
52105;BME280;38103;42.776;23.112;2022-10-18T14:31:29;94835.91;;;17.68;22.31
52105;BME280;38103;42.776;23.112;2022-10-18T14:33:56;94836.16;;;17.61;22.22
52105;BME280;38103;42.776;23.112;2022-10-18T14:36:24;94833.47;;;17.61;22.29
52105;BME280;38103;42.776;23.112;2022-10-18T14:39:01;94832.63;;;17.56;23.14
52105;BME280;38103;42.776;23.112;2022-10-18T14:41:35;94825.63;;;17.44;23.56
52105;BME280;38103;42.776;23.112;2022-10-18T14:47:11;94816.25;;;17.14;24.48
52105;BME280;38103;42.776;23.112;2022-10-18T14:49:29;94820.19;;;17.01;24.61
52105;BME280;38103;42.776;23.112;2022-10-18T14:51:57;94820.25;;;16.83;24.42
52105;BME280;38103;42.776;23.112;2022-10-18T14:54:32;94818.03;;;16.70;24.96
52105;BME280;38103;42.776;23.112;2022-10-18T14:56:59;94820.00;;;16.57;24.88
52105;BME280;38103;42.776;23.112;2022-10-18T14:59:31;94818.78;;;16.42;25.13
52105;BME280;38103;42.776;23.112;2022-10-18T15:01:59;94812.25;;;16.28;25.58
52105;BME280;38103;42.776;23.112;2022-10-18T15:04:27;94812.41;;;16.21;25.86
52105;BME280;38103;42.776;23.112;2022-10-18T15:07:07;94811.50;;;16.10;25.73
52105;BME280;38103;42.776;23.112;2022-10-18T15:09:38;94814.56;;;16.02;26.88
52105;BME280;38103;42.776;23.112;2022-10-18T15:12:05;94808.59;;;15.94;26.98
52105;BME280;38103;42.776;23.112;2022-10-18T15:14:33;94749.75;;;15.56;26.56
52105;BME280;38103;42.776;23.112;2022-10-18T15:17:06;94810.00;;;15.80;27.52
52105;BME280;38103;42.776;23.112;2022-10-18T15:19:35;94789.47;;;15.58;27.10
52105;BME280;38103;42.776;23.112;2022-10-18T15:22:08;94787.06;;;15.39;27.73
52105;BME280;38103;42.776;23.112;2022-10-18T15:24:40;94745.44;;;14.98;28.53
52105;BME280;38103;42.776;23.112;2022-10-18T15:27:31;94783.88;;;15.02;31.27
52105;BME280;38103;42.776;23.112;2022-10-18T15:29:57;94780.84;;;14.81;32.13
52105;BME280;38103;42.776;23.112;2022-10-18T15:32:30;94729.38;;;14.29;31.64
52105;BME280;38103;42.776;23.112;2022-10-18T15:35:21;94778.28;;;14.40;30.75
52105;BME280;38103;42.776;23.112;2022-10-18T15:37:47;94778.34;;;14.16;30.67
52105;BME280;38103;42.776;23.112;2022-10-18T15:42:52;94786.69;;;14.19;33.13